Terminal Aerodrome Forecast
Issued by NWS Lubbock, TX

Home | Current Version | Previous Version | Text Only | Print | Product List | Glossary On
Versions: 1 2 3 4 5 6 7 8 9 10 11 12 13 14 15
000
FTUS44 KLUB 241129
TAFLBB
TAF
KLBB 241129Z 2412/2512 21008KT P6SM -SHRA SCT040 OVC110
     FM241500 21014KT P6SM SCT080 BKN150 PROB30 2421/2503 -TSRA
      BKN060CB=

USA.gov is the U.S. government's official web portal to all federal, state and local government web resources and services.